sensor_id;sensor_type;location;lat;lon;timestamp;P1;durP1;ratioP1;P2;durP2;ratioP2
29848;SDS011;16728;50.832;5.590;2022-11-15T00:02:48;15.57;;;11.98;;
29848;SDS011;16728;50.832;5.590;2022-11-15T00:05:49;17.02;;;11.82;;
29848;SDS011;16728;50.832;5.590;2022-11-15T00:08:51;18.63;;;11.35;;
29848;SDS011;16728;50.832;5.590;2022-11-15T00:11:53;15.10;;;11.27;;
29848;SDS011;16728;50.832;5.590;2022-11-15T00:14:56;18.75;;;12.18;;
29848;SDS011;16728;50.832;5.590;2022-11-15T00:17:57;15.80;;;11.82;;
29848;SDS011;16728;50.832;5.590;2022-11-15T00:21:03;17.35;;;11.70;;
29848;SDS011;16728;50.832;5.590;2022-11-15T00:24:07;14.60;;;11.63;;
29848;SDS011;16728;50.832;5.590;2022-11-15T00:27:09;23.05;;;12.25;;
29848;SDS011;16728;50.832;5.590;2022-11-15T00:30:12;19.00;;;12.23;;
29848;SDS011;16728;50.832;5.590;2022-11-15T00:33:14;16.42;;;11.95;;
29848;SDS011;16728;50.832;5.590;2022-11-15T00:36:16;19.73;;;12.15;;
29848;SDS011;16728;50.832;5.590;2022-11-15T00:39:18;18.05;;;13.15;;
29848;SDS011;16728;50.832;5.590;2022-11-15T00:42:20;17.58;;;11.38;;
29848;SDS011;16728;50.832;5.590;2022-11-15T00:45:22;16.92;;;11.18;;
29848;SDS011;16728;50.832;5.590;2022-11-15T00:48:24;17.98;;;11.02;;
29848;SDS011;16728;50.832;5.590;2022-11-15T00:51:26;14.25;;;11.00;;
29848;SDS011;16728;50.832;5.590;2022-11-15T00:54:28;15.68;;;11.10;;
29848;SDS011;16728;50.832;5.590;2022-11-15T00:57:30;14.35;;;10.90;;
29848;SDS011;16728;50.832;5.590;2022-11-15T01:00:32;16.15;;;11.23;;
29848;SDS011;16728;50.832;5.590;2022-11-15T01:03:34;15.45;;;10.65;;
29848;SDS011;16728;50.832;5.590;2022-11-15T01:06:36;20.57;;;11.30;;
29848;SDS011;16728;50.832;5.590;2022-11-15T01:09:38;16.92;;;10.82;;
29848;SDS011;16728;50.832;5.590;2022-11-15T01:12:40;14.75;;;10.77;;
29848;SDS011;16728;50.832;5.590;2022-11-15T01:15:42;16.17;;;10.90;;
29848;SDS011;16728;50.832;5.590;2022-11-15T01:18:44;18.13;;;10.73;;
29848;SDS011;16728;50.832;5.590;2022-11-15T01:21:49;15.07;;;10.55;;
29848;SDS011;16728;50.832;5.590;2022-11-15T01:24:52;13.48;;;10.20;;
29848;SDS011;16728;50.832;5.590;2022-11-15T01:27:53;13.68;;;9.85;;
29848;SDS011;16728;50.832;5.590;2022-11-15T01:30:57;17.20;;;10.05;;
29848;SDS011;16728;50.832;5.590;2022-11-15T01:34:06;12.48;;;9.45;;
29848;SDS011;16728;50.832;5.590;2022-11-15T01:37:08;14.40;;;10.50;;
29848;SDS011;16728;50.832;5.590;2022-11-15T01:40:11;13.93;;;9.35;;
29848;SDS011;16728;50.832;5.590;2022-11-15T01:46:41;13.35;;;9.73;;
29848;SDS011;16728;50.832;5.590;2022-11-15T01:49:59;15.32;;;9.15;;
29848;SDS011;16728;50.832;5.590;2022-11-15T01:53:05;14.15;;;9.77;;
29848;SDS011;16728;50.832;5.590;2022-11-15T01:56:09;12.93;;;9.90;;
29848;SDS011;16728;50.832;5.590;2022-11-15T01:59:18;13.68;;;10.15;;
29848;SDS011;16728;50.832;5.590;2022-11-15T02:02:20;15.20;;;10.30;;
29848;SDS011;16728;50.832;5.590;2022-11-15T02:05:23;14.48;;;9.63;;
29848;SDS011;16728;50.832;5.590;2022-11-15T02:08:25;11.60;;;9.27;;
29848;SDS011;16728;50.832;5.590;2022-11-15T02:11:27;10.40;;;9.27;;
29848;SDS011;16728;50.832;5.590;2022-11-15T02:14:29;13.57;;;8.85;;
29848;SDS011;16728;50.832;5.590;2022-11-15T02:43:55;13.98;;;8.65;;
29848;SDS011;16728;50.832;5.590;2022-11-15T02:47:05;14.35;;;8.70;;
29848;SDS011;16728;50.832;5.590;2022-11-15T02:50:17;11.13;;;8.95;;
29848;SDS011;16728;50.832;5.590;2022-11-15T02:53:25;16.50;;;9.05;;
29848;SDS011;16728;50.832;5.590;2022-11-15T02:56:27;10.07;;;7.93;;
29848;SDS011;16728;50.832;5.590;2022-11-15T02:59:34;14.63;;;8.13;;
29848;SDS011;16728;50.832;5.590;2022-11-15T03:12:56;10.57;;;7.72;;
29848;SDS011;16728;50.832;5.590;2022-11-15T03:16:11;8.88;;;7.00;;
29848;SDS011;16728;50.832;5.590;2022-11-15T03:19:44;10.38;;;7.20;;
29848;SDS011;16728;50.832;5.590;2022-11-15T03:22:48;7.65;;;6.82;;
29848;SDS011;16728;50.832;5.590;2022-11-15T03:25:51;10.98;;;7.28;;
29848;SDS011;16728;50.832;5.590;2022-11-15T03:29:00;11.38;;;7.63;;
29848;SDS011;16728;50.832;5.590;2022-11-15T03:32:09;11.10;;;6.57;;
29848;SDS011;16728;50.832;5.590;2022-11-15T03:35:17;7.80;;;6.82;;
29848;SDS011;16728;50.832;5.590;2022-11-15T03:38:25;9.65;;;7.10;;
29848;SDS011;16728;50.832;5.590;2022-11-15T03:41:29;12.93;;;7.18;;
29848;SDS011;16728;50.832;5.590;2022-11-15T03:45:02;9.95;;;6.60;;
29848;SDS011;16728;50.832;5.590;2022-11-15T03:48:18;8.80;;;7.10;;
29848;SDS011;16728;50.832;5.590;2022-11-15T03:51:25;11.05;;;7.80;;
29848;SDS011;16728;50.832;5.590;2022-11-15T03:54:27;8.00;;;6.63;;
29848;SDS011;16728;50.832;5.590;2022-11-15T03:57:29;6.82;;;6.10;;
29848;SDS011;16728;50.832;5.590;2022-11-15T04:00:31;11.68;;;6.72;;
29848;SDS011;16728;50.832;5.590;2022-11-15T04:03:33;9.05;;;7.03;;
29848;SDS011;16728;50.832;5.590;2022-11-15T04:06:35;10.93;;;6.87;;
29848;SDS011;16728;50.832;5.590;2022-11-15T04:09:37;8.93;;;6.45;;
29848;SDS011;16728;50.832;5.590;2022-11-15T04:13:01;7.65;;;6.50;;
29848;SDS011;16728;50.832;5.590;2022-11-15T04:16:06;7.97;;;6.32;;
29848;SDS011;16728;50.832;5.590;2022-11-15T04:19:08;8.18;;;6.28;;
29848;SDS011;16728;50.832;5.590;2022-11-15T04:22:28;9.23;;;6.00;;
29848;SDS011;16728;50.832;5.590;2022-11-15T04:25:49;9.45;;;6.45;;
29848;SDS011;16728;50.832;5.590;2022-11-15T04:28:54;8.00;;;6.07;;
29848;SDS011;16728;50.832;5.590;2022-11-15T04:32:14;8.25;;;5.57;;
29848;SDS011;16728;50.832;5.590;2022-11-15T04:35:19;8.13;;;5.70;;
29848;SDS011;16728;50.832;5.590;2022-11-15T04:38:21;10.45;;;6.20;;
29848;SDS011;16728;50.832;5.590;2022-11-15T04:41:23;8.02;;;6.38;;
29848;SDS011;16728;50.832;5.590;2022-11-15T04:44:25;6.80;;;5.95;;
29848;SDS011;16728;50.832;5.590;2022-11-15T04:47:27;6.35;;;5.75;;
29848;SDS011;16728;50.832;5.590;2022-11-15T04:50:30;6.35;;;4.88;;
29848;SDS011;16728;50.832;5.590;2022-11-15T04:53:32;5.82;;;5.18;;
29848;SDS011;16728;50.832;5.590;2022-11-15T04:56:34;8.63;;;5.40;;
29848;SDS011;16728;50.832;5.590;2022-11-15T04:59:37;6.28;;;4.65;;
29848;SDS011;16728;50.832;5.590;2022-11-15T05:02:39;8.75;;;4.60;;
29848;SDS011;16728;50.832;5.590;2022-11-15T05:05:59;4.75;;;4.32;;
29848;SDS011;16728;50.832;5.590;2022-11-15T05:09:01;5.57;;;4.07;;
29848;SDS011;16728;50.832;5.590;2022-11-15T05:12:04;6.00;;;4.40;;
29848;SDS011;16728;50.832;5.590;2022-11-15T05:15:06;5.28;;;3.40;;
29848;SDS011;16728;50.832;5.590;2022-11-15T05:18:08;3.73;;;2.63;;
29848;SDS011;16728;50.832;5.590;2022-11-15T05:21:11;2.42;;;1.88;;
29848;SDS011;16728;50.832;5.590;2022-11-15T05:24:15;3.05;;;1.33;;
29848;SDS011;16728;50.832;5.590;2022-11-15T05:27:17;3.30;;;1.42;;
29848;SDS011;16728;50.832;5.590;2022-11-15T05:30:19;3.08;;;1.48;;
29848;SDS011;16728;50.832;5.590;2022-11-15T05:33:21;3.22;;;1.45;;
29848;SDS011;16728;50.832;5.590;2022-11-15T05:36:27;3.33;;;1.65;;
29848;SDS011;16728;50.832;5.590;2022-11-15T05:39:31;4.80;;;2.03;;
29848;SDS011;16728;50.832;5.590;2022-11-15T05:42:33;2.38;;;1.90;;
29848;SDS011;16728;50.832;5.590;2022-11-15T05:45:35;1.77;;;1.63;;
29848;SDS011;16728;50.832;5.590;2022-11-15T05:48:38;3.05;;;1.98;;
29848;SDS011;16728;50.832;5.590;2022-11-15T05:51:44;4.38;;;2.08;;
29848;SDS011;16728;50.832;5.590;2022-11-15T05:54:48;2.72;;;2.00;;
29848;SDS011;16728;50.832;5.590;2022-11-15T05:57:51;4.05;;;2.15;;
29848;SDS011;16728;50.832;5.590;2022-11-15T06:00:54;4.55;;;1.70;;
29848;SDS011;16728;50.832;5.590;2022-11-15T06:03:56;3.80;;;1.90;;
29848;SDS011;16728;50.832;5.590;2022-11-15T06:06:58;4.32;;;1.77;;
29848;SDS011;16728;50.832;5.590;2022-11-15T06:10:00;2.30;;;1.65;;
29848;SDS011;16728;50.832;5.590;2022-11-15T06:13:03;1.90;;;1.50;;
29848;SDS011;16728;50.832;5.590;2022-11-15T06:16:05;1.75;;;1.40;;
29848;SDS011;16728;50.832;5.590;2022-11-15T06:19:07;1.70;;;1.20;;
29848;SDS011;16728;50.832;5.590;2022-11-15T06:22:09;1.92;;;1.23;;
29848;SDS011;16728;50.832;5.590;2022-11-15T06:25:11;3.03;;;1.50;;
29848;SDS011;16728;50.832;5.590;2022-11-15T06:28:13;1.80;;;1.52;;
29848;SDS011;16728;50.832;5.590;2022-11-15T06:31:15;4.20;;;1.95;;
29848;SDS011;16728;50.832;5.590;2022-11-15T06:34:16;2.85;;;1.80;;
29848;SDS011;16728;50.832;5.590;2022-11-15T06:37:18;2.67;;;2.20;;
29848;SDS011;16728;50.832;5.590;2022-11-15T06:40:20;7.05;;;2.92;;
29848;SDS011;16728;50.832;5.590;2022-11-15T06:43:22;4.70;;;2.50;;
29848;SDS011;16728;50.832;5.590;2022-11-15T06:46:24;4.03;;;2.35;;
29848;SDS011;16728;50.832;5.590;2022-11-15T06:49:26;4.50;;;2.22;;
29848;SDS011;16728;50.832;5.590;2022-11-15T06:52:28;3.88;;;2.38;;
29848;SDS011;16728;50.832;5.590;2022-11-15T06:55:33;3.05;;;2.33;;
29848;SDS011;16728;50.832;5.590;2022-11-15T06:58:35;3.60;;;2.35;;
29848;SDS011;16728;50.832;5.590;2022-11-15T07:01:37;3.83;;;2.35;;
29848;SDS011;16728;50.832;5.590;2022-11-15T07:04:39;3.95;;;2.10;;
29848;SDS011;16728;50.832;5.590;2022-11-15T07:07:41;3.75;;;2.30;;
29848;SDS011;16728;50.832;5.590;2022-11-15T07:10:43;4.80;;;2.60;;
29848;SDS011;16728;50.832;5.590;2022-11-15T07:13:45;3.40;;;1.88;;
29848;SDS011;16728;50.832;5.590;2022-11-15T07:16:47;3.92;;;1.83;;
29848;SDS011;16728;50.832;5.590;2022-11-15T07:19:49;2.88;;;1.85;;
29848;SDS011;16728;50.832;5.590;2022-11-15T07:22:51;3.05;;;1.70;;
29848;SDS011;16728;50.832;5.590;2022-11-15T07:26:02;2.40;;;1.80;;
29848;SDS011;16728;50.832;5.590;2022-11-15T07:29:04;3.53;;;1.73;;
29848;SDS011;16728;50.832;5.590;2022-11-15T07:32:05;3.13;;;2.00;;
29848;SDS011;16728;50.832;5.590;2022-11-15T07:35:07;2.40;;;2.20;;
29848;SDS011;16728;50.832;5.590;2022-11-15T07:38:09;4.75;;;2.55;;
29848;SDS011;16728;50.832;5.590;2022-11-15T07:41:14;3.03;;;2.25;;
29848;SDS011;16728;50.832;5.590;2022-11-15T07:44:15;3.83;;;2.35;;
29848;SDS011;16728;50.832;5.590;2022-11-15T07:47:17;5.13;;;2.35;;
29848;SDS011;16728;50.832;5.590;2022-11-15T07:50:19;5.93;;;2.28;;
29848;SDS011;16728;50.832;5.590;2022-11-15T07:53:21;2.42;;;1.70;;
29848;SDS011;16728;50.832;5.590;2022-11-15T07:56:23;3.38;;;2.05;;
29848;SDS011;16728;50.832;5.590;2022-11-15T07:59:25;3.08;;;1.85;;
29848;SDS011;16728;50.832;5.590;2022-11-15T08:02:28;4.60;;;1.90;;
29848;SDS011;16728;50.832;5.590;2022-11-15T08:05:31;3.33;;;2.22;;
29848;SDS011;16728;50.832;5.590;2022-11-15T08:08:33;3.75;;;1.95;;
29848;SDS011;16728;50.832;5.590;2022-11-15T08:11:35;7.07;;;2.03;;
29848;SDS011;16728;50.832;5.590;2022-11-15T08:14:37;3.85;;;1.70;;
29848;SDS011;16728;50.832;5.590;2022-11-15T08:17:39;3.35;;;1.80;;
29848;SDS011;16728;50.832;5.590;2022-11-15T08:20:42;5.72;;;1.83;;
29848;SDS011;16728;50.832;5.590;2022-11-15T08:23:44;5.43;;;1.90;;
29848;SDS011;16728;50.832;5.590;2022-11-15T08:26:47;9.77;;;2.53;;
29848;SDS011;16728;50.832;5.590;2022-11-15T08:29:49;6.10;;;1.85;;
29848;SDS011;16728;50.832;5.590;2022-11-15T08:32:57;4.40;;;1.70;;
29848;SDS011;16728;50.832;5.590;2022-11-15T08:36:00;4.70;;;1.98;;
29848;SDS011;16728;50.832;5.590;2022-11-15T08:39:14;5.38;;;1.90;;
29848;SDS011;16728;50.832;5.590;2022-11-15T08:42:18;4.28;;;1.70;;
29848;SDS011;16728;50.832;5.590;2022-11-15T08:45:20;4.35;;;2.15;;
29848;SDS011;16728;50.832;5.590;2022-11-15T08:48:22;4.60;;;1.58;;
29848;SDS011;16728;50.832;5.590;2022-11-15T08:51:24;4.25;;;1.40;;
29848;SDS011;16728;50.832;5.590;2022-11-15T08:54:26;3.50;;;1.50;;
29848;SDS011;16728;50.832;5.590;2022-11-15T08:57:29;2.78;;;1.50;;
29848;SDS011;16728;50.832;5.590;2022-11-15T09:00:32;4.80;;;1.38;;
29848;SDS011;16728;50.832;5.590;2022-11-15T09:03:34;6.60;;;1.93;;
29848;SDS011;16728;50.832;5.590;2022-11-15T09:06:36;3.13;;;1.63;;
29848;SDS011;16728;50.832;5.590;2022-11-15T09:09:43;3.22;;;1.70;;
29848;SDS011;16728;50.832;5.590;2022-11-15T09:12:45;6.00;;;1.85;;
29848;SDS011;16728;50.832;5.590;2022-11-15T09:15:49;2.03;;;1.33;;
29848;SDS011;16728;50.832;5.590;2022-11-15T09:18:52;2.53;;;1.13;;
29848;SDS011;16728;50.832;5.590;2022-11-15T09:24:57;2.25;;;1.17;;
29848;SDS011;16728;50.832;5.590;2022-11-15T09:28:05;2.13;;;1.30;;
29848;SDS011;16728;50.832;5.590;2022-11-15T09:31:08;6.40;;;1.60;;
29848;SDS011;16728;50.832;5.590;2022-11-15T09:34:11;2.63;;;1.40;;
29848;SDS011;16728;50.832;5.590;2022-11-15T09:37:13;7.87;;;1.37;;
29848;SDS011;16728;50.832;5.590;2022-11-15T09:40:16;3.75;;;1.48;;
29848;SDS011;16728;50.832;5.590;2022-11-15T09:46:51;5.78;;;1.55;;
29848;SDS011;16728;50.832;5.590;2022-11-15T09:50:06;4.25;;;1.10;;
29848;SDS011;16728;50.832;5.590;2022-11-15T09:53:11;3.95;;;1.08;;
29848;SDS011;16728;50.832;5.590;2022-11-15T09:56:18;3.65;;;1.30;;
29848;SDS011;16728;50.832;5.590;2022-11-15T09:59:35;2.58;;;1.23;;
29848;SDS011;16728;50.832;5.590;2022-11-15T10:03:20;5.00;;;1.23;;
29848;SDS011;16728;50.832;5.590;2022-11-15T10:06:25;3.30;;;1.33;;
29848;SDS011;16728;50.832;5.590;2022-11-15T10:09:51;2.85;;;1.00;;
29848;SDS011;16728;50.832;5.590;2022-11-15T10:12:52;3.65;;;0.98;;
29848;SDS011;16728;50.832;5.590;2022-11-15T10:15:58;2.55;;;0.98;;
29848;SDS011;16728;50.832;5.590;2022-11-15T10:19:12;4.13;;;1.00;;
29848;SDS011;16728;50.832;5.590;2022-11-15T10:25:37;2.67;;;1.20;;
29848;SDS011;16728;50.832;5.590;2022-11-15T10:28:39;2.70;;;1.20;;
29848;SDS011;16728;50.832;5.590;2022-11-15T10:31:42;3.20;;;1.15;;
29848;SDS011;16728;50.832;5.590;2022-11-15T10:34:45;4.80;;;1.27;;
29848;SDS011;16728;50.832;5.590;2022-11-15T10:37:48;4.25;;;1.35;;
29848;SDS011;16728;50.832;5.590;2022-11-15T10:40:51;3.50;;;1.17;;
29848;SDS011;16728;50.832;5.590;2022-11-15T10:44:11;5.30;;;1.70;;
29848;SDS011;16728;50.832;5.590;2022-11-15T10:47:24;2.55;;;1.02;;
29848;SDS011;16728;50.832;5.590;2022-11-15T10:50:30;4.00;;;1.27;;
29848;SDS011;16728;50.832;5.590;2022-11-15T10:53:36;6.40;;;1.85;;
29848;SDS011;16728;50.832;5.590;2022-11-15T10:56:48;7.65;;;1.73;;
29848;SDS011;16728;50.832;5.590;2022-11-15T10:59:56;9.35;;;2.45;;
29848;SDS011;16728;50.832;5.590;2022-11-15T11:03:22;4.30;;;1.20;;
29848;SDS011;16728;50.832;5.590;2022-11-15T11:06:52;4.15;;;1.20;;
29848;SDS011;16728;50.832;5.590;2022-11-15T11:10:04;6.03;;;1.30;;
29848;SDS011;16728;50.832;5.590;2022-11-15T11:13:41;3.67;;;1.10;;
29848;SDS011;16728;50.832;5.590;2022-11-15T11:16:44;3.97;;;1.17;;
29848;SDS011;16728;50.832;5.590;2022-11-15T11:33:33;4.20;;;1.08;;
29848;SDS011;16728;50.832;5.590;2022-11-15T11:37:07;2.42;;;1.10;;
29848;SDS011;16728;50.832;5.590;2022-11-15T11:40:37;5.70;;;0.98;;
29848;SDS011;16728;50.832;5.590;2022-11-15T11:46:56;2.90;;;0.90;;
29848;SDS011;16728;50.832;5.590;2022-11-15T11:50:10;5.22;;;1.50;;
29848;SDS011;16728;50.832;5.590;2022-11-15T11:53:25;3.35;;;0.73;;
29848;SDS011;16728;50.832;5.590;2022-11-15T11:56:33;5.50;;;1.20;;
29848;SDS011;16728;50.832;5.590;2022-11-15T12:02:47;4.25;;;1.23;;
29848;SDS011;16728;50.832;5.590;2022-11-15T12:05:56;4.43;;;0.93;;
29848;SDS011;16728;50.832;5.590;2022-11-15T12:15:31;4.93;;;1.40;;
29848;SDS011;16728;50.832;5.590;2022-11-15T12:18:54;3.25;;;1.17;;
29848;SDS011;16728;50.832;5.590;2022-11-15T12:22:00;5.82;;;0.95;;
29848;SDS011;16728;50.832;5.590;2022-11-15T12:25:14;5.50;;;1.10;;
29848;SDS011;16728;50.832;5.590;2022-11-15T12:28:28;4.22;;;1.25;;
29848;SDS011;16728;50.832;5.590;2022-11-15T12:32:04;5.68;;;0.90;;
29848;SDS011;16728;50.832;5.590;2022-11-15T12:35:23;3.67;;;1.40;;
29848;SDS011;16728;50.832;5.590;2022-11-15T12:54:55;3.17;;;0.93;;
29848;SDS011;16728;50.832;5.590;2022-11-15T12:58:19;2.05;;;1.00;;
29848;SDS011;16728;50.832;5.590;2022-11-15T13:04:35;2.90;;;1.08;;
29848;SDS011;16728;50.832;5.590;2022-11-15T13:10:42;3.97;;;1.10;;
29848;SDS011;16728;50.832;5.590;2022-11-15T13:13:44;4.07;;;1.17;;
29848;SDS011;16728;50.832;5.590;2022-11-15T13:16:46;8.18;;;2.00;;
29848;SDS011;16728;50.832;5.590;2022-11-15T13:23:13;4.25;;;1.40;;
29848;SDS011;16728;50.832;5.590;2022-11-15T13:26:16;3.60;;;1.13;;
29848;SDS011;16728;50.832;5.590;2022-11-15T13:29:18;3.92;;;1.13;;
29848;SDS011;16728;50.832;5.590;2022-11-15T13:32:21;2.63;;;1.03;;
29848;SDS011;16728;50.832;5.590;2022-11-15T13:35:24;1.50;;;0.65;;
29848;SDS011;16728;50.832;5.590;2022-11-15T13:38:36;3.38;;;0.95;;
29848;SDS011;16728;50.832;5.590;2022-11-15T13:41:49;6.47;;;1.02;;
29848;SDS011;16728;50.832;5.590;2022-11-15T13:44:56;3.20;;;1.15;;
29848;SDS011;16728;50.832;5.590;2022-11-15T13:48:03;2.08;;;0.95;;
29848;SDS011;16728;50.832;5.590;2022-11-15T13:51:30;1.30;;;0.88;;
29848;SDS011;16728;50.832;5.590;2022-11-15T13:54:47;5.80;;;1.30;;
29848;SDS011;16728;50.832;5.590;2022-11-15T13:58:02;3.47;;;1.00;;
29848;SDS011;16728;50.832;5.590;2022-11-15T14:01:11;2.13;;;1.10;;
29848;SDS011;16728;50.832;5.590;2022-11-15T14:04:19;1.55;;;0.80;;
29848;SDS011;16728;50.832;5.590;2022-11-15T14:07:24;2.25;;;0.98;;
29848;SDS011;16728;50.832;5.590;2022-11-15T14:10:33;3.97;;;1.00;;
29848;SDS011;16728;50.832;5.590;2022-11-15T14:13:37;1.20;;;1.10;;
29848;SDS011;16728;50.832;5.590;2022-11-15T14:16:40;1.73;;;0.98;;
29848;SDS011;16728;50.832;5.590;2022-11-15T14:19:44;6.10;;;2.53;;
29848;SDS011;16728;50.832;5.590;2022-11-15T14:22:55;3.33;;;1.40;;
29848;SDS011;16728;50.832;5.590;2022-11-15T14:25:59;2.28;;;1.23;;
29848;SDS011;16728;50.832;5.590;2022-11-15T14:32:26;3.13;;;1.25;;
29848;SDS011;16728;50.832;5.590;2022-11-15T14:35:29;1.73;;;1.23;;
29848;SDS011;16728;50.832;5.590;2022-11-15T14:38:32;1.73;;;1.10;;
29848;SDS011;16728;50.832;5.590;2022-11-15T14:44:40;1.77;;;1.38;;
29848;SDS011;16728;50.832;5.590;2022-11-15T14:47:46;5.50;;;1.98;;
29848;SDS011;16728;50.832;5.590;2022-11-15T14:50:48;1.55;;;1.30;;
29848;SDS011;16728;50.832;5.590;2022-11-15T14:53:50;1.92;;;1.38;;
29848;SDS011;16728;50.832;5.590;2022-11-15T14:56:52;4.40;;;1.48;;
29848;SDS011;16728;50.832;5.590;2022-11-15T14:59:54;2.45;;;1.67;;
29848;SDS011;16728;50.832;5.590;2022-11-15T15:02:56;2.05;;;1.40;;
29848;SDS011;16728;50.832;5.590;2022-11-15T15:05:58;2.00;;;1.20;;
29848;SDS011;16728;50.832;5.590;2022-11-15T15:09:00;2.55;;;1.38;;
29848;SDS011;16728;50.832;5.590;2022-11-15T15:12:02;3.70;;;1.73;;
29848;SDS011;16728;50.832;5.590;2022-11-15T15:15:11;3.47;;;1.67;;
29848;SDS011;16728;50.832;5.590;2022-11-15T15:18:16;5.72;;;1.75;;
29848;SDS011;16728;50.832;5.590;2022-11-15T15:24:23;5.00;;;1.60;;
29848;SDS011;16728;50.832;5.590;2022-11-15T15:27:25;10.40;;;2.13;;
29848;SDS011;16728;50.832;5.590;2022-11-15T15:30:27;3.60;;;1.50;;
29848;SDS011;16728;50.832;5.590;2022-11-15T15:33:33;3.05;;;2.10;;
29848;SDS011;16728;50.832;5.590;2022-11-15T15:36:35;7.15;;;1.88;;
29848;SDS011;16728;50.832;5.590;2022-11-15T15:39:38;6.38;;;2.63;;
29848;SDS011;16728;50.832;5.590;2022-11-15T15:42:39;3.90;;;2.22;;
29848;SDS011;16728;50.832;5.590;2022-11-15T15:45:41;15.10;;;10.60;;
29848;SDS011;16728;50.832;5.590;2022-11-15T15:48:46;7.85;;;3.35;;
29848;SDS011;16728;50.832;5.590;2022-11-15T15:51:48;3.70;;;2.35;;
29848;SDS011;16728;50.832;5.590;2022-11-15T15:54:50;3.65;;;2.13;;
29848;SDS011;16728;50.832;5.590;2022-11-15T15:57:52;4.07;;;2.40;;
29848;SDS011;16728;50.832;5.590;2022-11-15T16:00:54;4.30;;;2.38;;
29848;SDS011;16728;50.832;5.590;2022-11-15T16:03:56;3.25;;;2.70;;
29848;SDS011;16728;50.832;5.590;2022-11-15T16:06:58;2.65;;;2.15;;
29848;SDS011;16728;50.832;5.590;2022-11-15T16:10:02;3.03;;;2.25;;
29848;SDS011;16728;50.832;5.590;2022-11-15T16:13:15;4.05;;;1.98;;
29848;SDS011;16728;50.832;5.590;2022-11-15T16:19:21;2.40;;;2.20;;
29848;SDS011;16728;50.832;5.590;2022-11-15T16:22:23;4.53;;;2.75;;
29848;SDS011;16728;50.832;5.590;2022-11-15T16:25:24;3.67;;;2.47;;
29848;SDS011;16728;50.832;5.590;2022-11-15T16:28:28;5.30;;;2.53;;
29848;SDS011;16728;50.832;5.590;2022-11-15T16:31:32;3.20;;;2.63;;
29848;SDS011;16728;50.832;5.590;2022-11-15T16:34:34;6.32;;;2.80;;
29848;SDS011;16728;50.832;5.590;2022-11-15T16:37:44;3.35;;;3.05;;
29848;SDS011;16728;50.832;5.590;2022-11-15T16:40:46;4.68;;;2.83;;
29848;SDS011;16728;50.832;5.590;2022-11-15T16:43:48;3.83;;;3.03;;
29848;SDS011;16728;50.832;5.590;2022-11-15T16:46:50;3.47;;;2.90;;
29848;SDS011;16728;50.832;5.590;2022-11-15T16:49:52;3.40;;;3.00;;
29848;SDS011;16728;50.832;5.590;2022-11-15T16:52:55;4.88;;;3.22;;
29848;SDS011;16728;50.832;5.590;2022-11-15T16:55:58;3.10;;;2.80;;
29848;SDS011;16728;50.832;5.590;2022-11-15T16:59:00;3.38;;;3.08;;
29848;SDS011;16728;50.832;5.590;2022-11-15T17:02:02;6.87;;;3.40;;
29848;SDS011;16728;50.832;5.590;2022-11-15T17:05:04;3.75;;;3.35;;
29848;SDS011;16728;50.832;5.590;2022-11-15T17:08:12;5.78;;;3.42;;
29848;SDS011;16728;50.832;5.590;2022-11-15T17:11:14;5.50;;;3.72;;
29848;SDS011;16728;50.832;5.590;2022-11-15T17:14:21;5.25;;;3.92;;
29848;SDS011;16728;50.832;5.590;2022-11-15T17:17:23;7.68;;;3.70;;
29848;SDS011;16728;50.832;5.590;2022-11-15T17:23:47;6.55;;;4.13;;
29848;SDS011;16728;50.832;5.590;2022-11-15T17:26:49;5.00;;;4.07;;
29848;SDS011;16728;50.832;5.590;2022-11-15T17:29:51;6.90;;;4.40;;
29848;SDS011;16728;50.832;5.590;2022-11-15T17:32:53;4.57;;;4.07;;
29848;SDS011;16728;50.832;5.590;2022-11-15T17:35:56;4.38;;;3.97;;
29848;SDS011;16728;50.832;5.590;2022-11-15T17:39:00;5.25;;;3.67;;
29848;SDS011;16728;50.832;5.590;2022-11-15T17:42:02;4.70;;;4.00;;
29848;SDS011;16728;50.832;5.590;2022-11-15T17:45:04;4.72;;;3.75;;
29848;SDS011;16728;50.832;5.590;2022-11-15T17:48:10;4.28;;;3.35;;
29848;SDS011;16728;50.832;5.590;2022-11-15T17:51:13;5.50;;;3.83;;
29848;SDS011;16728;50.832;5.590;2022-11-15T17:54:16;5.22;;;3.70;;
29848;SDS011;16728;50.832;5.590;2022-11-15T17:57:18;3.83;;;3.42;;
29848;SDS011;16728;50.832;5.590;2022-11-15T18:00:20;4.22;;;3.45;;
29848;SDS011;16728;50.832;5.590;2022-11-15T18:03:22;5.68;;;3.70;;
29848;SDS011;16728;50.832;5.590;2022-11-15T18:06:24;6.30;;;3.88;;
29848;SDS011;16728;50.832;5.590;2022-11-15T18:09:26;6.68;;;3.83;;
29848;SDS011;16728;50.832;5.590;2022-11-15T18:12:28;5.55;;;3.95;;
29848;SDS011;16728;50.832;5.590;2022-11-15T18:15:30;4.53;;;3.60;;
29848;SDS011;16728;50.832;5.590;2022-11-15T18:18:32;4.53;;;4.13;;
29848;SDS011;16728;50.832;5.590;2022-11-15T18:21:36;4.85;;;4.13;;
29848;SDS011;16728;50.832;5.590;2022-11-15T18:24:57;6.00;;;4.30;;
29848;SDS011;16728;50.832;5.590;2022-11-15T18:27:58;4.82;;;4.32;;
29848;SDS011;16728;50.832;5.590;2022-11-15T18:31:00;4.35;;;3.95;;
29848;SDS011;16728;50.832;5.590;2022-11-15T18:34:03;4.70;;;4.13;;
29848;SDS011;16728;50.832;5.590;2022-11-15T18:37:06;5.00;;;4.50;;
29848;SDS011;16728;50.832;5.590;2022-11-15T18:40:08;6.75;;;3.92;;
29848;SDS011;16728;50.832;5.590;2022-11-15T18:43:10;4.03;;;3.63;;
29848;SDS011;16728;50.832;5.590;2022-11-15T18:46:13;3.92;;;3.45;;
29848;SDS011;16728;50.832;5.590;2022-11-15T18:49:16;5.80;;;3.72;;
29848;SDS011;16728;50.832;5.590;2022-11-15T18:52:20;5.28;;;4.03;;
29848;SDS011;16728;50.832;5.590;2022-11-15T18:55:22;6.43;;;4.20;;
29848;SDS011;16728;50.832;5.590;2022-11-15T18:58:25;7.22;;;4.93;;
29848;SDS011;16728;50.832;5.590;2022-11-15T19:01:36;5.00;;;3.80;;
29848;SDS011;16728;50.832;5.590;2022-11-15T19:04:40;4.13;;;3.72;;
29848;SDS011;16728;50.832;5.590;2022-11-15T19:07:41;4.35;;;3.60;;
29848;SDS011;16728;50.832;5.590;2022-11-15T19:10:43;6.35;;;3.97;;
29848;SDS011;16728;50.832;5.590;2022-11-15T19:13:46;5.72;;;3.58;;
29848;SDS011;16728;50.832;5.590;2022-11-15T19:16:48;5.40;;;3.50;;
29848;SDS011;16728;50.832;5.590;2022-11-15T19:19:52;3.65;;;3.35;;
29848;SDS011;16728;50.832;5.590;2022-11-15T19:22:54;3.90;;;3.50;;
29848;SDS011;16728;50.832;5.590;2022-11-15T19:25:57;4.22;;;3.05;;
29848;SDS011;16728;50.832;5.590;2022-11-15T19:29:01;3.88;;;3.47;;
29848;SDS011;16728;50.832;5.590;2022-11-15T19:32:03;3.78;;;3.38;;
29848;SDS011;16728;50.832;5.590;2022-11-15T19:35:05;3.83;;;3.38;;
29848;SDS011;16728;50.832;5.590;2022-11-15T19:38:07;5.18;;;3.33;;
29848;SDS011;16728;50.832;5.590;2022-11-15T19:41:10;5.18;;;3.80;;
29848;SDS011;16728;50.832;5.590;2022-11-15T19:44:16;4.00;;;3.30;;
29848;SDS011;16728;50.832;5.590;2022-11-15T19:47:19;4.88;;;3.92;;
29848;SDS011;16728;50.832;5.590;2022-11-15T19:50:21;3.90;;;3.47;;
29848;SDS011;16728;50.832;5.590;2022-11-15T19:53:22;4.50;;;4.05;;
29848;SDS011;16728;50.832;5.590;2022-11-15T19:56:26;5.38;;;4.05;;
29848;SDS011;16728;50.832;5.590;2022-11-15T19:59:28;4.28;;;3.65;;
29848;SDS011;16728;50.832;5.590;2022-11-15T20:02:30;5.47;;;3.90;;
29848;SDS011;16728;50.832;5.590;2022-11-15T20:05:32;3.60;;;3.28;;
29848;SDS011;16728;50.832;5.590;2022-11-15T20:08:34;4.57;;;3.47;;
29848;SDS011;16728;50.832;5.590;2022-11-15T20:11:36;3.57;;;3.23;;
29848;SDS011;16728;50.832;5.590;2022-11-15T20:14:39;4.80;;;3.43;;
29848;SDS011;16728;50.832;5.590;2022-11-15T20:17:41;3.70;;;3.20;;
29848;SDS011;16728;50.832;5.590;2022-11-15T20:20:43;3.50;;;3.20;;
29848;SDS011;16728;50.832;5.590;2022-11-15T20:23:47;4.95;;;3.30;;
29848;SDS011;16728;50.832;5.590;2022-11-15T20:26:51;3.40;;;3.00;;
29848;SDS011;16728;50.832;5.590;2022-11-15T20:29:53;4.60;;;3.40;;